I Maria — V3YI3 — position and weather

sailwx.info

Track history (hours):
 
Tides and Currents Weather Stations Pressure Air Temp Water Temp Dewpoint Dewpoint Depression Visibility Wind Speed Wind Dir Waves Ship Positions

I Maria

Last reported at 2017-Nov-07 16:40 UTC. Time now 2017-Nov-18 10:20 UTC.
Position N 37°29' E 025°56'.
Warning: this ship's position is 10 days out of date.

Length 180 m; draft 11 m.

Type: Cargo ship. MMSI: 312175000.

Date/timePositionNaut miles runAvg speedWind from/ knotsBaromVisibWave heightAir tempDewpointWater temp
2017-Nov-07 16:40N 37°29' E 025°56'210.7
2017-Nov-07 16:30N 37°30' E 025°54'610.6
2017-Nov-07 15:59N 37°35' E 025°52'250 5.9
2017-Nov-05 21:34N 40°59' E 028°59'43010.1
2017-Nov-04 02:51N 44°28' E 037°31'411.2
2017-Nov-04 02:30N 44°30' E 037°36'510.7
2017-Nov-04 02:00N 44°32' E 037°42'5 9.7
2017-Nov-04 01:30N 44°36' E 037°47'4 8.4
2017-Nov-04 01:00N 44°39' E 037°50'2 3.1
2017-Nov-04 00:30N 44°41' E 037°50'0 0.0
2017-Nov-04 00:00N 44°41' E 037°50'0 0.0
2017-Nov-03 23:23N 44°41' E 037°50'0 0.0
2017-Nov-03 22:59N 44°41' E 037°50'0 0.0
2017-Nov-03 22:25N 44°41' E 037°50'0 0.0
2017-Nov-03 22:00N 44°41' E 037°50'0 0.1
2017-Nov-03 21:29N 44°41' E 037°50'0 0.0
2017-Nov-03 21:00N 44°41' E 037°50'0 0.0
2017-Nov-03 20:29N 44°41' E 037°50'0 0.1
2017-Nov-03 19:57N 44°41' E 037°50'0 0.3
2017-Nov-03 19:30N 44°41' E 037°50'0 0.3
2017-Nov-03 19:00N 44°41' E 037°50'2 4.4
2017-Nov-03 18:30N 44°38' E 037°51'3 5.6
2017-Nov-03 18:00N 44°36' E 037°51'2 4.6
2017-Nov-03 17:31N 44°34' E 037°53'0 0.8
2017-Nov-03 16:58N 44°34' E 037°54'0 0.0
2017-Nov-03 16:27N 44°34' E 037°54'0 0.0
2017-Nov-03 15:58N 44°34' E 037°54'0 0.0
2017-Nov-03 15:30N 44°34' E 037°54'0 0.0
2017-Nov-03 14:58N 44°34' E 037°54'0 0.0
2017-Nov-03 14:27N 44°34' E 037°54'0 0.0
2017-Nov-03 14:00N 44°34' E 037°54'0 0.0
2017-Nov-03 13:30N 44°34' E 037°54'0 0.0
2017-Nov-03 12:59N 44°34' E 037°54'0 0.0
2017-Nov-03 12:29N 44°34' E 037°54'0 0.0
2017-Nov-03 12:00N 44°34' E 037°54'0 0.0
2017-Nov-03 11:24N 44°34' E 037°54'0 0.0
2017-Nov-03 10:59N 44°34' E 037°54'0 0.0
2017-Nov-03 10:28N 44°34' E 037°54'0 0.1
2017-Nov-03 09:54N 44°34' E 037°54'0 0.0
2017-Nov-03 09:30N 44°34' E 037°54'0 0.0
2017-Nov-03 09:00N 44°34' E 037°54'0 0.0
2017-Nov-03 08:28N 44°34' E 037°54'0 0.0
2017-Nov-03 07:58N 44°34' E 037°54'0 0.0
2017-Nov-03 07:30N 44°34' E 037°54'0 0.0
2017-Nov-03 06:57N 44°34' E 037°54'0 0.0
2017-Nov-03 06:29N 44°34' E 037°54'0 0.0
2017-Nov-03 05:53N 44°34' E 037°54'0 0.1
2017-Nov-03 05:28N 44°34' E 037°54'0 0.1
2017-Nov-03 04:59N 44°34' E 037°54'0 0.0
2017-Nov-03 04:29N 44°34' E 037°54'0 0.0
2017-Nov-03 03:59N 44°34' E 037°54'0 0.0
2017-Nov-03 03:30N 44°34' E 037°54'0 0.0
2017-Nov-03 02:57N 44°34' E 037°54'0 0.0
2017-Nov-03 02:28N 44°34' E 037°54'0 0.0
2017-Nov-03 01:58N 44°34' E 037°54'0 0.0
2017-Nov-03 01:23N 44°34' E 037°54'0 0.0
2017-Nov-03 00:58N 44°34' E 037°54'0 0.1
2017-Nov-03 00:28N 44°34' E 037°54'0 0.0
2017-Nov-02 23:54N 44°34' E 037°54'0 0.0
2017-Nov-02 23:24N 44°34' E 037°54'0 0.0
2017-Nov-02 23:00N 44°34' E 037°54'0 0.0
2017-Nov-02 22:28N 44°34' E 037°54'0 0.0
2017-Nov-02 21:54N 44°34' E 037°54'0 0.0
2017-Nov-02 21:28N 44°34' E 037°54'0 0.0
2017-Nov-02 21:00N 44°34' E 037°54'0 0.0
2017-Nov-02 20:30N 44°34' E 037°54'0 0.1
2017-Nov-02 19:54N 44°34' E 037°54'0 0.0
2017-Nov-02 19:28N 44°34' E 037°54'0 0.0
2017-Nov-02 18:59N 44°34' E 037°54'0 0.1
2017-Nov-02 18:29N 44°34' E 037°54'0 0.0
2017-Nov-02 17:59N 44°34' E 037°54'0 0.0
2017-Nov-02 17:24N 44°34' E 037°54'0 0.1
2017-Nov-02 16:57N 44°34' E 037°54'0 0.0
2017-Nov-02 16:28N 44°34' E 037°54'0 0.1
2017-Nov-02 15:59N 44°34' E 037°54'0 0.0
2017-Nov-02 15:24N 44°34' E 037°54'0 0.0
2017-Nov-02 15:00N 44°34' E 037°54'0 0.1
2017-Nov-02 14:28N 44°34' E 037°54'0 0.0
2017-Nov-02 14:00N 44°34' E 037°54'0 0.0
2017-Nov-02 13:30N 44°34' E 037°54'0 0.0
2017-Nov-02 12:58N 44°34' E 037°54'0 0.1
2017-Nov-02 12:25N 44°34' E 037°54'0 0.0
2017-Nov-02 11:59N 44°34' E 037°54'0 0.0
2017-Nov-02 11:25N 44°34' E 037°54'0 0.0
2017-Nov-02 10:59N 44°34' E 037°54'0 0.0
2017-Nov-02 10:29N 44°34' E 037°54'0 0.0
2017-Nov-02 09:59N 44°34' E 037°54'1 1.8
2017-Nov-02 09:30N 44°35' E 037°53'3 6.0
2017-Nov-02 09:00N 44°36' E 037°49'3 7.0
2017-Nov-02 08:30N 44°40' E 037°50'3 5.5
2017-Nov-02 07:57N 44°43' E 037°49'1 0.2
2017-Nov-02 04:32N 44°43' E 037°49'0 0.1
2017-Nov-02 04:28N 44°43' E 037°49'0 0.0
2017-Nov-02 03:59N 44°43' E 037°49'0 0.0
2017-Nov-02 03:28N 44°43' E 037°49'0 0.0
2017-Nov-02 03:00N 44°43' E 037°49'0 0.0
2017-Nov-02 02:28N 44°43' E 037°49'0 0.0
2017-Nov-02 01:59N 44°43' E 037°49'0 0.0
2017-Nov-02 01:30N 44°43' E 037°49'0 0.0
2017-Nov-02 01:00N 44°43' E 037°49'0 0.0
2017-Nov-02 00:28N 44°43' E 037°49'0 0.0
2017-Nov-01 23:59N 44°43' E 037°49'0 0.0
2017-Nov-01 23:24N 44°43' E 037°49'0 0.0
2017-Nov-01 22:58N 44°43' E 037°49'0 0.0
2017-Nov-01 22:27N 44°43' E 037°49'0 0.0
2017-Nov-01 21:58N 44°43' E 037°49'0 0.0
2017-Nov-01 21:27N 44°43' E 037°49'0 0.0
2017-Nov-01 21:00N 44°43' E 037°49'0 0.0
2017-Nov-01 20:25N 44°43' E 037°49'0 0.0
2017-Nov-01 19:59N 44°43' E 037°49'0 0.0
2017-Nov-01 19:30N 44°43' E 037°49'0 0.0
2017-Nov-01 18:58N 44°43' E 037°49'0 0.0
2017-Nov-01 18:29N 44°43' E 037°49'0 0.0
2017-Nov-01 01:58N 44°43' E 037°49'0 0.0
2017-Nov-01 01:27N 44°43' E 037°49'0 0.0
2017-Nov-01 00:59N 44°43' E 037°49'0 0.0
2017-Nov-01 00:25N 44°43' E 037°49'0 0.0
2017-Nov-01 00:00N 44°43' E 037°49'0 0.0
2017-Oct-31 23:30N 44°43' E 037°49'0 0.0
2017-Oct-31 22:59N 44°43' E 037°49'0 0.0
2017-Oct-31 22:29N 44°43' E 037°49'0 0.0
2017-Oct-31 21:59N 44°43' E 037°49'0 0.0
2017-Oct-31 21:24N 44°43' E 037°49'0 0.0
2017-Oct-31 21:00N 44°43' E 037°49'0 0.0
2017-Oct-31 20:30N 44°43' E 037°49'0 0.0
2017-Oct-31 19:59N 44°43' E 037°49'0 0.0
2017-Oct-31 19:30N 44°43' E 037°49'0 0.0
2017-Oct-31 19:00N 44°43' E 037°49'0 0.0
2017-Oct-31 18:30N 44°43' E 037°49'0 0.0
2017-Oct-31 17:59N 44°43' E 037°49'0 0.0
2017-Oct-31 17:30N 44°43' E 037°49'0 0.0
2017-Oct-31 17:00N 44°43' E 037°49'0 0.0
2017-Oct-31 16:30N 44°43' E 037°49'0 0.0
2017-Oct-31 15:59N 44°43' E 037°49'0 0.0
2017-Oct-31 15:29N 44°43' E 037°49'0 0.0
2017-Oct-31 15:00N 44°43' E 037°49'0 0.0
2017-Oct-31 14:28N 44°43' E 037°49'0 0.0
2017-Oct-31 13:58N 44°43' E 037°49'0 0.0
2017-Oct-31 13:29N 44°43' E 037°49'0 0.0
2017-Oct-31 12:59N 44°43' E 037°49'0 0.0
2017-Oct-31 12:25N 44°43' E 037°49'0 0.0
2017-Oct-31 12:00N 44°43' E 037°49'0 0.0
2017-Oct-31 11:29N 44°43' E 037°49'0 0.0
2017-Oct-31 11:00N 44°43' E 037°49'0 0.0
2017-Oct-31 10:29N 44°43' E 037°49'0 0.0
2017-Oct-31 09:57N 44°43' E 037°49'0 0.0
2017-Oct-31 09:23N 44°43' E 037°49'0 0.4
2017-Oct-31 09:00N 44°43' E 037°49'2 3.8
2017-Oct-31 08:31N 44°41' E 037°50'4 8.1
2017-Oct-31 08:01N 44°38' E 037°51'3 6.8
2017-Oct-31 07:30N 44°34' E 037°53'4 7.3
2017-Oct-31 07:00N 44°31' E 037°55'4 7.3
2017-Oct-31 06:31N 44°28' E 037°57'2 4.8
2017-Oct-31 06:00N 44°27' E 038°00'2 3.5
2017-Oct-31 05:30N 44°28' E 038°01'2 4.5
2017-Oct-31 05:00N 44°30' E 037°60'2 3.9
2017-Oct-31 04:26N 44°32' E 037°57'1 1.9
2017-Oct-31 03:59N 44°33' E 037°57'0 0.2
2017-Oct-31 03:26N 44°33' E 037°57'0 0.1
2017-Oct-31 03:00N 44°33' E 037°57'0 0.1
2017-Oct-31 02:30N 44°33' E 037°57'0 0.2
2017-Oct-31 02:00N 44°33' E 037°57'0 0.0
2017-Oct-31 01:26N 44°33' E 037°57'0 0.0
2017-Oct-31 00:58N 44°33' E 037°57'0 0.1
2017-Oct-31 00:29N 44°33' E 037°57'0 0.0
2017-Oct-30 23:53N 44°33' E 037°57'0 0.0
2017-Oct-30 23:29N 44°33' E 037°57'0 0.0
2017-Oct-30 22:59N 44°33' E 037°57'0 0.0
2017-Oct-30 22:28N 44°33' E 037°57'0 0.1
2017-Oct-30 21:54N 44°33' E 037°57'0 0.1
2017-Oct-30 21:28N 44°33' E 037°57'0 0.0
2017-Oct-30 20:26N 44°33' E 037°57'0 0.0
2017-Oct-30 19:59N 44°33' E 037°57'0 0.1
2017-Oct-30 19:30N 44°33' E 037°57'0 0.1
2017-Oct-30 18:58N 44°33' E 037°57'0 0.1
2017-Oct-30 18:29N 44°33' E 037°57'0 0.1
2017-Oct-30 18:00N 44°33' E 037°57'0 0.0
2017-Oct-30 17:28N 44°33' E 037°57'0 0.1
2017-Oct-30 17:00N 44°33' E 037°57'0 0.0
2017-Oct-30 16:28N 44°33' E 037°57'0 0.1
2017-Oct-30 15:58N 44°33' E 037°57'0 0.0
2017-Oct-30 15:23N 44°33' E 037°57'0 0.0
2017-Oct-30 14:59N 44°33' E 037°57'0 0.1
2017-Oct-30 14:29N 44°33' E 037°57'0 0.1
2017-Oct-30 13:30N 44°33' E 037°57'0 0.1
2017-Oct-30 12:59N 44°33' E 037°57'0 0.0
2017-Oct-30 12:30N 44°33' E 037°57'0 0.0
2017-Oct-30 12:00N 44°33' E 037°57'0 0.0
2017-Oct-30 11:30N 44°33' E 037°57'0 0.0
2017-Oct-30 11:00N 44°33' E 037°57'0 0.1
2017-Oct-30 10:29N 44°33' E 037°57'0 0.0
2017-Oct-30 09:59N 44°33' E 037°57'0 0.1
2017-Oct-30 09:23N 44°33' E 037°57'0 0.0
2017-Oct-30 09:00N 44°33' E 037°57'0 0.1
2017-Oct-30 08:30N 44°33' E 037°57'0 0.1
2017-Oct-30 07:54N 44°33' E 037°57'0 0.1
2017-Oct-30 07:24N 44°33' E 037°57'0 0.0
2017-Oct-30 06:58N 44°33' E 037°57'0 0.1
2017-Oct-30 06:28N 44°33' E 037°57'0 0.1
2017-Oct-30 05:59N 44°33' E 037°57'0 0.0
2017-Oct-30 05:29N 44°33' E 037°57'0 0.1
2017-Oct-30 05:00N 44°33' E 037°57'0 0.1
2017-Oct-30 04:28N 44°33' E 037°57'0 0.1
2017-Oct-30 03:57N 44°33' E 037°57'0 0.2
2017-Oct-30 03:28N 44°33' E 037°57'0 0.1
2017-Oct-30 02:58N 44°33' E 037°57'0 0.1
2017-Oct-30 02:29N 44°33' E 037°57'0 0.0
2017-Oct-30 01:54N 44°33' E 037°57'0 0.0
2017-Oct-30 01:30N 44°33' E 037°57'0 0.1
2017-Oct-30 00:58N 44°33' E 037°57'0 0.0
2017-Oct-30 00:26N 44°33' E 037°57'0 0.0
2017-Oct-29 23:54N 44°33' E 037°57'0 0.1
2017-Oct-29 23:27N 44°33' E 037°57'0 0.0
2017-Oct-29 23:00N 44°33' E 037°57'0 0.1
2017-Oct-29 22:28N 44°33' E 037°57'0 0.1
2017-Oct-29 22:00N 44°33' E 037°57'0 0.0
2017-Oct-29 21:30N 44°33' E 037°57'0 0.0
2017-Oct-29 20:59N 44°33' E 037°57'0 0.0
2017-Oct-29 20:29N 44°33' E 037°57'0 0.0
2017-Oct-29 20:00N 44°33' E 037°57'0 0.0
2017-Oct-29 19:29N 44°33' E 037°57'0 0.1
2017-Oct-29 19:00N 44°33' E 037°57'0 0.1
2017-Oct-29 18:30N 44°33' E 037°57'0 0.1
2017-Oct-29 17:59N 44°33' E 037°57'0 0.0
2017-Oct-29 17:29N 44°33' E 037°57'0 0.0
2017-Oct-29 17:00N 44°33' E 037°57'0 0.0
2017-Oct-29 16:30N 44°33' E 037°57'0 0.0
2017-Oct-29 15:55N 44°33' E 037°57'0 0.0
2017-Oct-29 15:29N 44°33' E 037°57'0 0.0
2017-Oct-29 14:58N 44°33' E 037°57'0 0.1
2017-Oct-29 14:26N 44°33' E 037°57'0 0.0
2017-Oct-29 13:59N 44°33' E 037°57'0 0.1
2017-Oct-29 13:29N 44°33' E 037°57'0 0.1
2017-Oct-29 12:58N 44°33' E 037°57'0 0.0
2017-Oct-29 12:27N 44°33' E 037°57'0 0.0
2017-Oct-29 12:00N 44°33' E 037°57'0 0.1
2017-Oct-29 11:24N 44°33' E 037°57'0 0.0
2017-Oct-29 11:00N 44°33' E 037°57'0 0.0
2017-Oct-29 10:29N 44°33' E 037°57'0 0.0
2017-Oct-29 09:59N 44°33' E 037°57'0 0.0
2017-Oct-29 09:29N 44°33' E 037°57'0 0.0
2017-Oct-29 09:00N 44°33' E 037°57'0 0.0
2017-Oct-29 08:28N 44°33' E 037°57'0 0.0
2017-Oct-29 06:44N 44°33' E 037°57'0 0.0
2017-Oct-29 06:28N 44°33' E 037°57'0 0.0
2017-Oct-29 06:00N 44°33' E 037°57'0 0.0
2017-Oct-29 05:27N 44°33' E 037°57'0 0.0
2017-Oct-29 04:58N 44°33' E 037°57'0 0.1
2017-Oct-29 04:28N 44°33' E 037°57'0 0.0
2017-Oct-29 03:59N 44°33' E 037°57'0 0.0
2017-Oct-28 18:59N 44°33' E 037°57'0 0.1
2017-Oct-28 18:29N 44°33' E 037°57'0 0.0
2017-Oct-28 17:56N 44°33' E 037°57'0 0.1
2017-Oct-28 17:29N 44°33' E 037°57'  
Track history (hours):
 
Tides and Currents Weather Stations Pressure Air Temp Water Temp Dewpoint Dewpoint Depression Visibility Wind Speed Wind Dir Waves Ship Positions

I Maria

Last reported at 2017-Nov-07 16:40 UTC. Time now 2017-Nov-18 10:20 UTC.
Position N 37°29' E 025°56'.
Warning: this ship's position is 10 days out of date.

Length 180 m; draft 11 m.

Type: Cargo ship. MMSI: 312175000.

Date/timePositionNaut miles runAvg speedWind from/ knotsBaromVisibWave heightAir tempDewpointWater temp
2017-Nov-07 16:40N 37°29' E 025°56'210.7
2017-Nov-07 16:30N 37°30' E 025°54'610.6
2017-Nov-07 15:59N 37°35' E 025°52'250 5.9
2017-Nov-05 21:34N 40°59' E 028°59'43010.1
2017-Nov-04 02:51N 44°28' E 037°31'411.2
2017-Nov-04 02:30N 44°30' E 037°36'510.7
2017-Nov-04 02:00N 44°32' E 037°42'5 9.7
2017-Nov-04 01:30N 44°36' E 037°47'4 8.4
2017-Nov-04 01:00N 44°39' E 037°50'2 3.1
2017-Nov-04 00:30N 44°41' E 037°50'0 0.0
2017-Nov-04 00:00N 44°41' E 037°50'0 0.0
2017-Nov-03 23:23N 44°41' E 037°50'0 0.0
2017-Nov-03 22:59N 44°41' E 037°50'0 0.0
2017-Nov-03 22:25N 44°41' E 037°50'0 0.0
2017-Nov-03 22:00N 44°41' E 037°50'0 0.1
2017-Nov-03 21:29N 44°41' E 037°50'0 0.0
2017-Nov-03 21:00N 44°41' E 037°50'0 0.0
2017-Nov-03 20:29N 44°41' E 037°50'0 0.1
2017-Nov-03 19:57N 44°41' E 037°50'0 0.3
2017-Nov-03 19:30N 44°41' E 037°50'0 0.3
2017-Nov-03 19:00N 44°41' E 037°50'2 4.4
2017-Nov-03 18:30N 44°38' E 037°51'3 5.6
2017-Nov-03 18:00N 44°36' E 037°51'2 4.6
2017-Nov-03 17:31N 44°34' E 037°53'0 0.8
2017-Nov-03 16:58N 44°34' E 037°54'0 0.0
2017-Nov-03 16:27N 44°34' E 037°54'0 0.0
2017-Nov-03 15:58N 44°34' E 037°54'0 0.0
2017-Nov-03 15:30N 44°34' E 037°54'0 0.0
2017-Nov-03 14:58N 44°34' E 037°54'0 0.0
2017-Nov-03 14:27N 44°34' E 037°54'0 0.0
2017-Nov-03 14:00N 44°34' E 037°54'0 0.0
2017-Nov-03 13:30N 44°34' E 037°54'0 0.0
2017-Nov-03 12:59N 44°34' E 037°54'0 0.0
2017-Nov-03 12:29N 44°34' E 037°54'0 0.0
2017-Nov-03 12:00N 44°34' E 037°54'0 0.0
2017-Nov-03 11:24N 44°34' E 037°54'0 0.0
2017-Nov-03 10:59N 44°34' E 037°54'0 0.0
2017-Nov-03 10:28N 44°34' E 037°54'0 0.1
2017-Nov-03 09:54N 44°34' E 037°54'0 0.0
2017-Nov-03 09:30N 44°34' E 037°54'0 0.0
2017-Nov-03 09:00N 44°34' E 037°54'0 0.0
2017-Nov-03 08:28N 44°34' E 037°54'0 0.0
2017-Nov-03 07:58N 44°34' E 037°54'0 0.0
2017-Nov-03 07:30N 44°34' E 037°54'0 0.0
2017-Nov-03 06:57N 44°34' E 037°54'0 0.0
2017-Nov-03 06:29N 44°34' E 037°54'0 0.0
2017-Nov-03 05:53N 44°34' E 037°54'0 0.1
2017-Nov-03 05:28N 44°34' E 037°54'0 0.1
2017-Nov-03 04:59N 44°34' E 037°54'0 0.0
2017-Nov-03 04:29N 44°34' E 037°54'0 0.0
2017-Nov-03 03:59N 44°34' E 037°54'0 0.0
2017-Nov-03 03:30N 44°34' E 037°54'0 0.0
2017-Nov-03 02:57N 44°34' E 037°54'0 0.0
2017-Nov-03 02:28N 44°34' E 037°54'0 0.0
2017-Nov-03 01:58N 44°34' E 037°54'0 0.0
2017-Nov-03 01:23N 44°34' E 037°54'0 0.0
2017-Nov-03 00:58N 44°34' E 037°54'0 0.1
2017-Nov-03 00:28N 44°34' E 037°54'0 0.0
2017-Nov-02 23:54N 44°34' E 037°54'0 0.0
2017-Nov-02 23:24N 44°34' E 037°54'0 0.0
2017-Nov-02 23:00N 44°34' E 037°54'0 0.0
2017-Nov-02 22:28N 44°34' E 037°54'0 0.0
2017-Nov-02 21:54N 44°34' E 037°54'0 0.0
2017-Nov-02 21:28N 44°34' E 037°54'0 0.0
2017-Nov-02 21:00N 44°34' E 037°54'0 0.0
2017-Nov-02 20:30N 44°34' E 037°54'0 0.1
2017-Nov-02 19:54N 44°34' E 037°54'0 0.0
2017-Nov-02 19:28N 44°34' E 037°54'0 0.0
2017-Nov-02 18:59N 44°34' E 037°54'0 0.1
2017-Nov-02 18:29N 44°34' E 037°54'0 0.0
2017-Nov-02 17:59N 44°34' E 037°54'0 0.0
2017-Nov-02 17:24N 44°34' E 037°54'0 0.1
2017-Nov-02 16:57N 44°34' E 037°54'0 0.0
2017-Nov-02 16:28N 44°34' E 037°54'0 0.1
2017-Nov-02 15:59N 44°34' E 037°54'0 0.0
2017-Nov-02 15:24N 44°34' E 037°54'0 0.0
2017-Nov-02 15:00N 44°34' E 037°54'0 0.1
2017-Nov-02 14:28N 44°34' E 037°54'0 0.0
2017-Nov-02 14:00N 44°34' E 037°54'0 0.0
2017-Nov-02 13:30N 44°34' E 037°54'0 0.0
2017-Nov-02 12:58N 44°34' E 037°54'0 0.1
2017-Nov-02 12:25N 44°34' E 037°54'0 0.0
2017-Nov-02 11:59N 44°34' E 037°54'0 0.0
2017-Nov-02 11:25N 44°34' E 037°54'0 0.0
2017-Nov-02 10:59N 44°34' E 037°54'0 0.0
2017-Nov-02 10:29N 44°34' E 037°54'0 0.0
2017-Nov-02 09:59N 44°34' E 037°54'1 1.8
2017-Nov-02 09:30N 44°35' E 037°53'3 6.0
2017-Nov-02 09:00N 44°36' E 037°49'3 7.0
2017-Nov-02 08:30N 44°40' E 037°50'3 5.5
2017-Nov-02 07:57N 44°43' E 037°49'1 0.2
2017-Nov-02 04:32N 44°43' E 037°49'0 0.1
2017-Nov-02 04:28N 44°43' E 037°49'0 0.0
2017-Nov-02 03:59N 44°43' E 037°49'0 0.0
2017-Nov-02 03:28N 44°43' E 037°49'0 0.0
2017-Nov-02 03:00N 44°43' E 037°49'0 0.0
2017-Nov-02 02:28N 44°43' E 037°49'0 0.0
2017-Nov-02 01:59N 44°43' E 037°49'0 0.0
2017-Nov-02 01:30N 44°43' E 037°49'0 0.0
2017-Nov-02 01:00N 44°43' E 037°49'0 0.0
2017-Nov-02 00:28N 44°43' E 037°49'0 0.0
2017-Nov-01 23:59N 44°43' E 037°49'0 0.0
2017-Nov-01 23:24N 44°43' E 037°49'0 0.0
2017-Nov-01 22:58N 44°43' E 037°49'0 0.0
2017-Nov-01 22:27N 44°43' E 037°49'0 0.0
2017-Nov-01 21:58N 44°43' E 037°49'0 0.0
2017-Nov-01 21:27N 44°43' E 037°49'0 0.0
2017-Nov-01 21:00N 44°43' E 037°49'0 0.0
2017-Nov-01 20:25N 44°43' E 037°49'0 0.0
2017-Nov-01 19:59N 44°43' E 037°49'0 0.0
2017-Nov-01 19:30N 44°43' E 037°49'0 0.0
2017-Nov-01 18:58N 44°43' E 037°49'0 0.0
2017-Nov-01 18:29N 44°43' E 037°49'0 0.0
2017-Nov-01 01:58N 44°43' E 037°49'0 0.0
2017-Nov-01 01:27N 44°43' E 037°49'0 0.0
2017-Nov-01 00:59N 44°43' E 037°49'0 0.0
2017-Nov-01 00:25N 44°43' E 037°49'0 0.0
2017-Nov-01 00:00N 44°43' E 037°49'0 0.0
2017-Oct-31 23:30N 44°43' E 037°49'0 0.0
2017-Oct-31 22:59N 44°43' E 037°49'0 0.0
2017-Oct-31 22:29N 44°43' E 037°49'0 0.0
2017-Oct-31 21:59N 44°43' E 037°49'0 0.0
2017-Oct-31 21:24N 44°43' E 037°49'0 0.0
2017-Oct-31 21:00N 44°43' E 037°49'0 0.0
2017-Oct-31 20:30N 44°43' E 037°49'0 0.0
2017-Oct-31 19:59N 44°43' E 037°49'0 0.0
2017-Oct-31 19:30N 44°43' E 037°49'0 0.0
2017-Oct-31 19:00N 44°43' E 037°49'0 0.0
2017-Oct-31 18:30N 44°43' E 037°49'0 0.0
2017-Oct-31 17:59N 44°43' E 037°49'0 0.0
2017-Oct-31 17:30N 44°43' E 037°49'0 0.0
2017-Oct-31 17:00N 44°43' E 037°49'0 0.0
2017-Oct-31 16:30N 44°43' E 037°49'0 0.0
2017-Oct-31 15:59N 44°43' E 037°49'0 0.0
2017-Oct-31 15:29N 44°43' E 037°49'0 0.0
2017-Oct-31 15:00N 44°43' E 037°49'0 0.0
2017-Oct-31 14:28N 44°43' E 037°49'0 0.0
2017-Oct-31 13:58N 44°43' E 037°49'0 0.0
2017-Oct-31 13:29N 44°43' E 037°49'0 0.0
2017-Oct-31 12:59N 44°43' E 037°49'0 0.0
2017-Oct-31 12:25N 44°43' E 037°49'0 0.0
2017-Oct-31 12:00N 44°43' E 037°49'0 0.0
2017-Oct-31 11:29N 44°43' E 037°49'0 0.0
2017-Oct-31 11:00N 44°43' E 037°49'0 0.0
2017-Oct-31 10:29N 44°43' E 037°49'0 0.0
2017-Oct-31 09:57N 44°43' E 037°49'0 0.0
2017-Oct-31 09:23N 44°43' E 037°49'0 0.4
2017-Oct-31 09:00N 44°43' E 037°49'2 3.8
2017-Oct-31 08:31N 44°41' E 037°50'4 8.1
2017-Oct-31 08:01N 44°38' E 037°51'3 6.8
2017-Oct-31 07:30N 44°34' E 037°53'4 7.3
2017-Oct-31 07:00N 44°31' E 037°55'4 7.3
2017-Oct-31 06:31N 44°28' E 037°57'2 4.8
2017-Oct-31 06:00N 44°27' E 038°00'2 3.5
2017-Oct-31 05:30N 44°28' E 038°01'2 4.5
2017-Oct-31 05:00N 44°30' E 037°60'2 3.9
2017-Oct-31 04:26N 44°32' E 037°57'1 1.9
2017-Oct-31 03:59N 44°33' E 037°57'0 0.2
2017-Oct-31 03:26N 44°33' E 037°57'0 0.1
2017-Oct-31 03:00N 44°33' E 037°57'0 0.1
2017-Oct-31 02:30N 44°33' E 037°57'0 0.2
2017-Oct-31 02:00N 44°33' E 037°57'0 0.0
2017-Oct-31 01:26N 44°33' E 037°57'0 0.0
2017-Oct-31 00:58N 44°33' E 037°57'0 0.1
2017-Oct-31 00:29N 44°33' E 037°57'0 0.0
2017-Oct-30 23:53N 44°33' E 037°57'0 0.0
2017-Oct-30 23:29N 44°33' E 037°57'0 0.0
2017-Oct-30 22:59N 44°33' E 037°57'0 0.0
2017-Oct-30 22:28N 44°33' E 037°57'0 0.1
2017-Oct-30 21:54N 44°33' E 037°57'0 0.1
2017-Oct-30 21:28N 44°33' E 037°57'0 0.0
2017-Oct-30 20:26N 44°33' E 037°57'0 0.0
2017-Oct-30 19:59N 44°33' E 037°57'0 0.1
2017-Oct-30 19:30N 44°33' E 037°57'0 0.1
2017-Oct-30 18:58N 44°33' E 037°57'0 0.1
2017-Oct-30 18:29N 44°33' E 037°57'0 0.1
2017-Oct-30 18:00N 44°33' E 037°57'0 0.0
2017-Oct-30 17:28N 44°33' E 037°57'0 0.1
2017-Oct-30 17:00N 44°33' E 037°57'0 0.0
2017-Oct-30 16:28N 44°33' E 037°57'0 0.1
2017-Oct-30 15:58N 44°33' E 037°57'0 0.0
2017-Oct-30 15:23N 44°33' E 037°57'0 0.0
2017-Oct-30 14:59N 44°33' E 037°57'0 0.1
2017-Oct-30 14:29N 44°33' E 037°57'0 0.1
2017-Oct-30 13:30N 44°33' E 037°57'0 0.1
2017-Oct-30 12:59N 44°33' E 037°57'0 0.0
2017-Oct-30 12:30N 44°33' E 037°57'0 0.0
2017-Oct-30 12:00N 44°33' E 037°57'0 0.0
2017-Oct-30 11:30N 44°33' E 037°57'0 0.0
2017-Oct-30 11:00N 44°33' E 037°57'0 0.1
2017-Oct-30 10:29N 44°33' E 037°57'0 0.0
2017-Oct-30 09:59N 44°33' E 037°57'0 0.1
2017-Oct-30 09:23N 44°33' E 037°57'0 0.0
2017-Oct-30 09:00N 44°33' E 037°57'0 0.1
2017-Oct-30 08:30N 44°33' E 037°57'0 0.1
2017-Oct-30 07:54N 44°33' E 037°57'0 0.1
2017-Oct-30 07:24N 44°33' E 037°57'0 0.0
2017-Oct-30 06:58N 44°33' E 037°57'0 0.1
2017-Oct-30 06:28N 44°33' E 037°57'0 0.1
2017-Oct-30 05:59N 44°33' E 037°57'0 0.0
2017-Oct-30 05:29N 44°33' E 037°57'0 0.1
2017-Oct-30 05:00N 44°33' E 037°57'0 0.1
2017-Oct-30 04:28N 44°33' E 037°57'0 0.1
2017-Oct-30 03:57N 44°33' E 037°57'0 0.2
2017-Oct-30 03:28N 44°33' E 037°57'0 0.1
2017-Oct-30 02:58N 44°33' E 037°57'0 0.1
2017-Oct-30 02:29N 44°33' E 037°57'0 0.0
2017-Oct-30 01:54N 44°33' E 037°57'0 0.0
2017-Oct-30 01:30N 44°33' E 037°57'0 0.1
2017-Oct-30 00:58N 44°33' E 037°57'0 0.0
2017-Oct-30 00:26N 44°33' E 037°57'0 0.0
2017-Oct-29 23:54N 44°33' E 037°57'0 0.1
2017-Oct-29 23:27N 44°33' E 037°57'0 0.0
2017-Oct-29 23:00N 44°33' E 037°57'0 0.1
2017-Oct-29 22:28N 44°33' E 037°57'0 0.1
2017-Oct-29 22:00N 44°33' E 037°57'0 0.0
2017-Oct-29 21:30N 44°33' E 037°57'0 0.0
2017-Oct-29 20:59N 44°33' E 037°57'0 0.0
2017-Oct-29 20:29N 44°33' E 037°57'0 0.0
2017-Oct-29 20:00N 44°33' E 037°57'0 0.0
2017-Oct-29 19:29N 44°33' E 037°57'0 0.1
2017-Oct-29 19:00N 44°33' E 037°57'0 0.1
2017-Oct-29 18:30N 44°33' E 037°57'0 0.1
2017-Oct-29 17:59N 44°33' E 037°57'0 0.0
2017-Oct-29 17:29N 44°33' E 037°57'0 0.0
2017-Oct-29 17:00N 44°33' E 037°57'0 0.0
2017-Oct-29 16:30N 44°33' E 037°57'0 0.0
2017-Oct-29 15:55N 44°33' E 037°57'0 0.0
2017-Oct-29 15:29N 44°33' E 037°57'0 0.0
2017-Oct-29 14:58N 44°33' E 037°57'0 0.1
2017-Oct-29 14:26N 44°33' E 037°57'0 0.0
2017-Oct-29 13:59N 44°33' E 037°57'0 0.1
2017-Oct-29 13:29N 44°33' E 037°57'0 0.1
2017-Oct-29 12:58N 44°33' E 037°57'0 0.0
2017-Oct-29 12:27N 44°33' E 037°57'0 0.0
2017-Oct-29 12:00N 44°33' E 037°57'0 0.1
2017-Oct-29 11:24N 44°33' E 037°57'0 0.0
2017-Oct-29 11:00N 44°33' E 037°57'0 0.0
2017-Oct-29 10:29N 44°33' E 037°57'0 0.0
2017-Oct-29 09:59N 44°33' E 037°57'0 0.0
2017-Oct-29 09:29N 44°33' E 037°57'0 0.0
2017-Oct-29 09:00N 44°33' E 037°57'0 0.0
2017-Oct-29 08:28N 44°33' E 037°57'0 0.0
2017-Oct-29 06:44N 44°33' E 037°57'0 0.0
2017-Oct-29 06:28N 44°33' E 037°57'0 0.0
2017-Oct-29 06:00N 44°33' E 037°57'0 0.0
2017-Oct-29 05:27N 44°33' E 037°57'0 0.0
2017-Oct-29 04:58N 44°33' E 037°57'0 0.1
2017-Oct-29 04:28N 44°33' E 037°57'0 0.0
2017-Oct-29 03:59N 44°33' E 037°57'0 0.0
2017-Oct-28 18:59N 44°33' E 037°57'0 0.1
2017-Oct-28 18:29N 44°33' E 037°57'0 0.0
2017-Oct-28 17:56N 44°33' E 037°57'0 0.1
2017-Oct-28 17:29N 44°33' E 037°57'  

Dump ship's entire track history